Terminal Aerodrome Forecast
Issued by NWS

Home | Current Version | Previous Version | Text Only | Print | Product List | Glossary On
Versions: 1 2 3 4 5 6 7 8 9 10 11 12 13 14
000
FTUS43 KBIS 030704 AAA
TAFJMS
TAF AMD
KJMS 030704Z 0307/0406 27005KT 2SM FU VV040
     FM031400 35006KT 3SM FU SKC
     FM031900 01006KT 5SM FU SCT040
     FM040000 13005KT P6SM BKN050=

USA.gov is the U.S. government's official web portal to all federal, state and local government web resources and services.